createdAt,value
2017-08-03T00:04:35.900Z,20.20
2017-08-03T00:09:39.085Z,19.90
2017-08-03T00:14:42.269Z,19.70
2017-08-03T00:19:46.218Z,19.70
2017-08-03T00:24:49.417Z,19.70
2017-08-03T00:29:53.382Z,19.80
2017-08-03T00:34:56.557Z,19.80
2017-08-03T00:39:59.780Z,19.90
2017-08-03T00:45:02.950Z,19.80
2017-08-03T00:50:06.901Z,19.60
2017-08-03T00:55:10.094Z,19.60
2017-08-03T01:00:14.053Z,19.50
2017-08-03T01:05:17.230Z,19.50
2017-08-03T01:10:20.431Z,19.60
2017-08-03T01:15:24.464Z,19.70
2017-08-03T01:20:28.403Z,19.60
2017-08-03T01:25:31.686Z,19.60
2017-08-03T01:30:35.680Z,19.40
2017-08-03T01:35:38.893Z,19.40
2017-08-03T01:40:42.081Z,19.40
2017-08-03T01:45:45.301Z,19.20
2017-08-03T01:50:48.467Z,19.30
2017-08-03T01:55:51.758Z,19.40
2017-08-03T02:00:55.694Z,19.40
2017-08-03T02:05:58.867Z,19.40
2017-08-03T02:11:02.860Z,19.40
2017-08-03T02:16:06.041Z,19.40
2017-08-03T02:21:09.245Z,19.40
2017-08-03T02:26:12.446Z,19.50
2017-08-03T02:31:15.631Z,19.50
2017-08-03T02:36:19.569Z,19.50
2017-08-03T02:41:22.755Z,19.50
2017-08-03T02:46:26.719Z,19.60
2017-08-03T02:51:29.927Z,19.50
2017-08-03T02:56:33.106Z,19.60
2017-08-03T03:01:37.045Z,19.70
2017-08-03T03:06:40.266Z,19.70
2017-08-03T03:11:43.492Z,19.80
2017-08-03T03:16:46.681Z,19.80
2017-08-03T03:21:49.872Z,19.80
2017-08-03T03:26:53.041Z,19.90
2017-08-03T03:31:57.001Z,19.80
2017-08-03T03:37:00.204Z,19.80
2017-08-03T03:42:03.388Z,19.80
2017-08-03T03:47:07.358Z,19.50
2017-08-03T03:52:10.536Z,19.50
2017-08-03T03:57:13.758Z,19.50
2017-08-03T04:02:16.981Z,19.70
2017-08-03T04:07:20.523Z,19.90
2017-08-03T04:12:23.745Z,20.00
2017-08-03T04:17:26.924Z,20.10
2017-08-03T04:22:30.257Z,20.10
2017-08-03T04:27:33.465Z,20.00
2017-08-03T04:32:36.668Z,20.00
2017-08-03T04:37:39.873Z,20.00
2017-08-03T04:42:43.062Z,20.00
2017-08-03T04:47:46.260Z,20.00
2017-08-03T04:52:49.468Z,20.00
2017-08-03T04:57:52.635Z,20.20
2017-08-03T05:02:55.824Z,20.30
2017-08-03T05:07:59.001Z,20.40
2017-08-03T05:13:02.304Z,20.50
2017-08-03T05:18:05.474Z,20.60
2017-08-03T05:23:08.685Z,20.60
2017-08-03T05:28:11.923Z,20.50
2017-08-03T05:33:15.109Z,20.50
2017-08-03T05:38:18.309Z,20.70
2017-08-03T05:43:21.566Z,20.90
2017-08-03T05:48:24.778Z,20.90
2017-08-03T05:53:27.937Z,20.90
2017-08-03T05:58:31.306Z,21.10
2017-08-03T06:03:35.258Z,21.50
2017-08-03T06:08:38.551Z,21.40
2017-08-03T06:13:41.751Z,21.50
2017-08-03T06:18:45.702Z,21.70
2017-08-03T06:23:48.937Z,21.70
2017-08-03T06:28:52.205Z,21.80
2017-08-03T06:33:55.345Z,21.90
2017-08-03T06:38:58.539Z,22.20
2017-08-03T06:44:01.760Z,22.40
2017-08-03T06:49:04.933Z,22.70
2017-08-03T06:54:08.136Z,22.80
2017-08-03T06:59:11.301Z,22.90
2017-08-03T07:04:14.660Z,22.70
2017-08-03T07:09:17.972Z,22.60
2017-08-03T07:14:21.170Z,22.70
2017-08-03T07:19:24.390Z,22.90
2017-08-03T07:24:27.594Z,22.80
2017-08-03T07:29:30.786Z,22.70
2017-08-03T07:34:34.017Z,23.00
2017-08-03T07:39:37.213Z,23.20
2017-08-03T07:44:40.430Z,23.10
2017-08-03T07:49:43.639Z,23.20
2017-08-03T07:54:46.811Z,23.30
2017-08-03T07:59:50.986Z,23.00
2017-08-03T08:04:54.554Z,22.90
2017-08-03T08:09:58.527Z,22.70
2017-08-03T08:15:01.730Z,22.70
2017-08-03T08:20:05.014Z,22.70
2017-08-03T08:25:08.209Z,22.70
2017-08-03T08:30:13.797Z,22.60
2017-08-03T08:35:16.978Z,22.60
2017-08-03T08:40:20.182Z,22.80
2017-08-03T08:45:23.373Z,23.00
2017-08-03T08:50:26.549Z,23.10
2017-08-03T08:55:29.814Z,23.10
2017-08-03T09:00:33.000Z,23.00
2017-08-03T09:05:39.603Z,23.20
2017-08-03T09:10:42.892Z,23.10
2017-08-03T09:15:46.862Z,23.00
2017-08-03T09:20:50.055Z,23.10
2017-08-03T09:25:53.277Z,23.20
2017-08-03T09:30:56.619Z,23.10
2017-08-03T09:35:59.837Z,23.20
2017-08-03T09:41:03.236Z,23.30
2017-08-03T09:46:06.532Z,23.40
2017-08-03T09:51:09.727Z,23.40
2017-08-03T09:56:12.921Z,23.50
2017-08-03T10:01:16.269Z,23.50
2017-08-03T10:06:19.442Z,23.60
2017-08-03T10:11:22.745Z,23.70
2017-08-03T10:16:25.941Z,23.70
2017-08-03T10:21:29.136Z,23.70
2017-08-03T10:26:32.363Z,23.90
2017-08-03T10:31:35.572Z,24.00
2017-08-03T10:36:38.767Z,24.20
2017-08-03T10:41:41.970Z,24.10
2017-08-03T10:46:45.162Z,24.30
2017-08-03T10:51:49.123Z,24.60
2017-08-03T10:56:52.446Z,24.50
2017-08-03T11:01:55.630Z,24.60
2017-08-03T11:06:58.846Z,24.60
2017-08-03T11:12:02.071Z,24.80
2017-08-03T11:17:05.249Z,25.00
2017-08-03T11:22:08.481Z,25.00
2017-08-03T11:27:11.642Z,25.30
2017-08-03T11:32:14.846Z,25.30
2017-08-03T11:37:18.065Z,25.50
2017-08-03T11:42:21.242Z,25.50
2017-08-03T11:47:25.209Z,26.10
2017-08-03T11:52:28.409Z,26.10
2017-08-03T11:57:31.610Z,26.10
2017-08-03T12:02:34.865Z,26.40
2017-08-03T12:07:38.041Z,26.50
2017-08-03T12:12:41.243Z,26.70
2017-08-03T12:17:44.439Z,26.40
2017-08-03T12:22:47.639Z,27.10
2017-08-03T12:27:51.614Z,28.00
2017-08-03T12:32:54.821Z,28.00
2017-08-03T12:37:58.026Z,27.60
2017-08-03T12:43:01.198Z,27.50
2017-08-03T12:48:04.377Z,27.90
2017-08-03T12:53:07.556Z,28.40
2017-08-03T12:58:10.753Z,28.60
2017-08-03T13:03:13.943Z,28.80
2017-08-03T13:08:17.517Z,28.90
2017-08-03T13:13:21.485Z,28.70
2017-08-03T13:18:24.874Z,28.80
2017-08-03T13:23:28.046Z,28.70
2017-08-03T13:28:32.017Z,28.90
2017-08-03T13:33:35.198Z,28.90
2017-08-03T13:38:38.393Z,28.90
2017-08-03T13:43:42.341Z,28.40
2017-08-03T13:48:45.557Z,28.40
2017-08-03T13:53:48.918Z,28.50
2017-08-03T13:58:52.098Z,29.20
2017-08-03T14:03:55.272Z,28.70
2017-08-03T14:08:58.467Z,28.40
2017-08-03T14:14:01.669Z,28.40
2017-08-03T14:19:04.855Z,28.20
2017-08-03T14:24:08.035Z,28.30
2017-08-03T14:29:11.298Z,28.30
2017-08-03T14:34:14.593Z,28.30
2017-08-03T14:39:18.645Z,28.20
2017-08-03T14:44:21.825Z,28.20
2017-08-03T14:49:25.794Z,28.80
2017-08-03T14:54:28.981Z,28.80
2017-08-03T14:59:32.173Z,28.70
2017-08-03T15:04:35.387Z,28.20
2017-08-03T15:09:38.548Z,28.40
2017-08-03T15:14:42.702Z,28.10
2017-08-03T15:19:46.632Z,27.90
2017-08-03T15:24:49.849Z,27.80
2017-08-03T15:29:53.064Z,27.80
2017-08-03T15:34:56.227Z,28.00
2017-08-03T15:39:59.432Z,27.60
2017-08-03T15:45:02.606Z,27.60
2017-08-03T15:50:05.802Z,27.80
2017-08-03T15:55:09.036Z,27.70
2017-08-03T16:00:12.299Z,27.30
2017-08-03T16:05:15.503Z,27.50
2017-08-03T16:10:18.705Z,27.90
2017-08-03T16:15:21.908Z,28.00
2017-08-03T16:20:25.862Z,27.60
2017-08-03T16:25:29.076Z,27.50
2017-08-03T16:30:32.281Z,27.20
2017-08-03T16:35:35.481Z,27.60
2017-08-03T16:40:38.646Z,27.60
2017-08-03T16:45:42.653Z,27.00
2017-08-03T16:50:45.879Z,27.00
2017-08-03T16:55:49.065Z,27.10
2017-08-03T17:00:52.243Z,27.30
2017-08-03T17:05:55.457Z,27.10
2017-08-03T17:10:58.642Z,26.90
2017-08-03T17:16:01.829Z,26.70
2017-08-03T17:21:05.079Z,26.60
2017-08-03T17:26:09.118Z,26.50
2017-08-03T17:31:12.350Z,26.30
2017-08-03T17:36:16.340Z,26.10
2017-08-03T17:41:19.550Z,26.10
2017-08-03T17:46:22.742Z,25.80
2017-08-03T17:51:25.956Z,25.70
2017-08-03T17:56:29.167Z,25.70
2017-08-03T18:01:32.446Z,25.70
2017-08-03T18:06:35.647Z,25.60
2017-08-03T18:11:38.842Z,25.50
2017-08-03T18:16:42.785Z,25.30
2017-08-03T18:21:46.024Z,25.30
2017-08-03T18:26:49.199Z,25.10
2017-08-03T18:31:52.410Z,24.90
2017-08-03T18:36:55.602Z,24.80
2017-08-03T18:41:58.846Z,24.70
2017-08-03T18:47:02.068Z,24.70
2017-08-03T18:52:05.258Z,24.80
2017-08-03T18:57:08.453Z,24.60
2017-08-03T19:02:11.663Z,24.50
2017-08-03T19:07:14.896Z,24.40
2017-08-03T19:12:18.097Z,24.30
2017-08-03T19:17:21.404Z,24.10
2017-08-03T19:22:24.646Z,24.00
2017-08-03T19:27:28.765Z,23.80
2017-08-03T19:32:31.949Z,23.70
2017-08-03T19:37:35.485Z,23.80
2017-08-03T19:42:38.668Z,23.80
2017-08-03T19:47:41.867Z,23.70
2017-08-03T19:52:45.114Z,23.60
2017-08-03T19:57:49.085Z,23.40
2017-08-03T20:02:52.288Z,23.40
2017-08-03T20:07:55.498Z,23.30
2017-08-03T20:13:02.455Z,23.20
2017-08-03T20:18:06.438Z,22.90
2017-08-03T20:23:09.634Z,22.90
2017-08-03T20:28:12.821Z,22.90
2017-08-03T20:33:16.038Z,22.90
2017-08-03T20:38:19.270Z,22.90
2017-08-03T20:43:22.445Z,22.80
2017-08-03T20:48:25.637Z,22.70
2017-08-03T20:53:28.858Z,22.80
2017-08-03T20:58:32.065Z,22.80
2017-08-03T21:03:35.253Z,22.80
2017-08-03T21:08:38.462Z,22.70
2017-08-03T21:13:41.640Z,22.80
2017-08-03T21:18:45.602Z,22.70
2017-08-03T21:23:48.772Z,22.70
2017-08-03T21:28:52.739Z,22.60
2017-08-03T21:33:55.948Z,22.60
2017-08-03T21:38:59.157Z,22.60
2017-08-03T21:44:02.356Z,22.40
2017-08-03T21:49:05.533Z,22.30
2017-08-03T21:54:09.491Z,21.60
2017-08-03T21:59:12.692Z,21.60
2017-08-03T22:04:15.899Z,21.60
2017-08-03T22:09:19.069Z,21.60
2017-08-03T22:14:23.039Z,21.60
2017-08-03T22:19:26.247Z,21.60
2017-08-03T22:24:29.425Z,21.60
2017-08-03T22:29:32.692Z,21.50
2017-08-03T22:34:35.914Z,21.30
2017-08-03T22:39:39.090Z,21.20
2017-08-03T22:44:42.269Z,21.20
2017-08-03T22:49:45.527Z,21.10
2017-08-03T22:54:48.707Z,21.00
2017-08-03T22:59:51.878Z,20.80
2017-08-03T23:04:55.022Z,20.60
2017-08-03T23:09:58.217Z,20.50
2017-08-03T23:15:01.393Z,20.30
2017-08-03T23:20:04.576Z,20.20
2017-08-03T23:25:08.530Z,20.10
2017-08-03T23:30:11.717Z,20.10
2017-08-03T23:35:15.697Z,20.10
2017-08-03T23:40:18.902Z,20.00
2017-08-03T23:45:22.082Z,20.10
2017-08-03T23:50:25.298Z,20.00
2017-08-03T23:55:28.513Z,19.90
